createdAt,value
2022-09-05T00:01:27.639Z,87.07
2022-09-05T00:04:03.476Z,86.99
2022-09-05T00:06:52.390Z,87.31
2022-09-05T00:09:41.809Z,87.62
2022-09-05T00:12:11.889Z,88.47
2022-09-05T00:15:16.936Z,88.91
2022-09-05T00:18:56.491Z,89.22
2022-09-05T00:24:28.565Z,89.50
2022-09-05T00:24:42.059Z,88.79
2022-09-05T00:26:29.528Z,89.35
2022-09-05T00:29:04.396Z,88.50
2022-09-05T00:31:54.006Z,89.55
2022-09-05T00:34:47.919Z,89.95
2022-09-05T00:37:27.981Z,90.12
2022-09-05T00:40:17.442Z,90.95
2022-09-05T00:42:48.974Z,90.64
2022-09-05T00:45:20.729Z,90.26
2022-09-05T00:47:49.853Z,90.67
2022-09-05T00:50:23.190Z,91.22
2022-09-05T00:53:06.551Z,92.69
2022-09-05T00:55:40.824Z,92.43
2022-09-05T00:58:20.381Z,92.58
2022-09-05T01:00:53.098Z,92.24
2022-09-05T01:03:45.640Z,92.33
2022-09-05T01:06:19.159Z,93.06
2022-09-05T01:09:09.432Z,92.99
2022-09-05T01:11:54.109Z,93.43
2022-09-05T01:14:35.236Z,93.94
2022-09-05T01:17:12.409Z,93.96
2022-09-05T01:19:52.059Z,94.75
2022-09-05T01:22:40.703Z,95.53
2022-09-05T01:25:16.595Z,95.30
2022-09-05T01:29:06.493Z,94.62
2022-09-05T01:30:42.280Z,94.02
2022-09-05T01:33:18.980Z,94.75
2022-09-05T01:36:03.446Z,94.81
2022-09-05T01:38:37.481Z,94.09
2022-09-05T01:41:19.232Z,94.19
2022-09-05T01:44:11.379Z,94.02
2022-09-05T01:46:43.764Z,94.09
2022-09-05T01:49:25.002Z,93.91
2022-09-05T01:52:10.875Z,94.17
2022-09-05T01:54:45.987Z,94.05
2022-09-05T01:57:21.547Z,94.20
2022-09-05T01:59:56.160Z,93.99
2022-09-05T02:02:33.326Z,93.29
2022-09-05T02:05:13.423Z,92.47
2022-09-05T02:07:56.147Z,93.69
2022-09-05T02:10:44.395Z,94.37
2022-09-05T02:13:18.774Z,95.16
2022-09-05T02:15:59.133Z,94.89
2022-09-05T02:18:30.808Z,96.00
2022-09-05T02:21:01.044Z,95.93
2022-09-05T02:23:41.599Z,96.54
2022-09-05T02:26:14.073Z,96.86
2022-09-05T02:28:45.276Z,97.27
2022-09-05T02:31:19.793Z,98.65
2022-09-05T02:34:01.805Z,98.76
2022-09-05T02:36:35.649Z,99.47
2022-09-05T02:43:09.316Z,99.80
2022-09-05T02:45:19.431Z,100.00
2022-09-05T02:45:20.931Z,100.00
2022-09-05T02:47:47.324Z,100.00
2022-09-05T02:53:06.548Z,99.77
2022-09-05T02:57:33.266Z,100.00
2022-09-05T02:57:37.227Z,100.00
2022-09-05T02:59:13.897Z,100.00
2022-09-05T03:01:55.597Z,100.00
2022-09-05T03:04:31.022Z,100.00
2022-09-05T03:07:26.551Z,100.00
2022-09-05T03:10:17.768Z,100.00
2022-09-05T03:13:15.922Z,100.00
2022-09-05T03:16:11.469Z,100.00
2022-09-05T03:19:12.588Z,100.00
2022-09-05T03:22:09.286Z,100.00
2022-09-05T03:25:00.249Z,100.00
2022-09-05T03:28:04.809Z,100.00
2022-09-05T03:30:41.190Z,100.00
2022-09-05T03:33:33.976Z,100.00
2022-09-05T03:36:28.390Z,100.00
2022-09-05T03:39:31.695Z,100.00
2022-09-05T03:42:31.591Z,100.00
2022-09-05T03:45:15.406Z,100.00
2022-09-05T03:48:24.716Z,99.81
2022-09-05T03:57:17.061Z,100.00
2022-09-05T03:57:20.828Z,100.00
2022-09-05T03:57:38.716Z,100.00
2022-09-05T04:00:11.401Z,100.00
2022-09-05T04:08:06.416Z,100.00
2022-09-05T04:08:16.189Z,100.00
2022-09-05T04:08:42.729Z,99.56
2022-09-05T04:11:16.099Z,98.44
2022-09-05T04:13:50.613Z,97.74
2022-09-05T04:16:20.221Z,96.99
2022-09-05T04:18:51.614Z,97.59
2022-09-05T04:21:22.866Z,98.42
2022-09-05T04:24:08.952Z,99.14
2022-09-05T04:26:47.394Z,99.73
2022-09-05T04:29:20.978Z,99.76
2022-09-05T04:32:17.918Z,99.12
2022-09-05T04:34:51.270Z,99.33
2022-09-05T04:37:47.832Z,98.83
2022-09-05T04:40:33.208Z,98.72
2022-09-05T04:43:03.652Z,98.51
2022-09-05T04:45:40.875Z,98.68
2022-09-05T04:48:12.132Z,99.18
2022-09-05T04:50:46.591Z,98.69
2022-09-05T04:53:20.654Z,98.77
2022-09-05T04:55:51.160Z,98.76
2022-09-05T04:58:27.507Z,98.80
2022-09-05T05:06:03.004Z,99.18
2022-09-05T05:06:12.052Z,100.00
2022-09-05T05:07:07.688Z,100.00
2022-09-05T05:09:40.720Z,100.00
2022-09-05T05:17:54.817Z,100.00
2022-09-05T05:18:08.288Z,100.00
2022-09-05T05:18:42.414Z,100.00
2022-09-05T05:20:50.125Z,100.00
2022-09-05T05:23:19.556Z,100.00
2022-09-05T05:25:51.798Z,100.00
2022-09-05T05:28:26.903Z,100.00
2022-09-05T05:31:01.520Z,100.00
2022-09-05T05:33:33.732Z,100.00
2022-09-05T05:36:03.044Z,100.00
2022-09-05T05:38:37.792Z,100.00
2022-09-05T05:41:10.983Z,100.00
2022-09-05T05:43:45.501Z,100.00
2022-09-05T05:46:16.468Z,100.00
2022-09-05T05:48:51.765Z,100.00
2022-09-05T05:51:53.353Z,100.00
2022-09-05T05:54:28.124Z,100.00
2022-09-05T05:57:23.809Z,100.00
2022-09-05T05:59:59.105Z,100.00
2022-09-05T06:03:25.657Z,100.00
2022-09-05T06:06:16.333Z,100.00
2022-09-05T06:11:20.432Z,99.24
2022-09-05T06:14:57.751Z,99.21
2022-09-05T06:16:01.476Z,98.98
2022-09-05T06:19:25.442Z,97.44
2022-09-05T06:22:44.506Z,96.87
2022-09-05T06:25:46.013Z,94.77
2022-09-05T06:28:21.217Z,93.53
2022-09-05T06:31:22.535Z,92.73
2022-09-05T06:33:52.419Z,92.79
2022-09-05T06:36:32.615Z,92.79
2022-09-05T06:39:07.466Z,92.22
2022-09-05T06:41:42.563Z,91.83
2022-09-05T06:44:38.234Z,91.82
2022-09-05T06:47:24.389Z,91.78
2022-09-05T06:50:24.186Z,91.13
2022-09-05T06:53:25.239Z,90.99
2022-09-05T06:56:00.349Z,90.88
2022-09-05T06:59:08.994Z,90.16
2022-09-05T07:02:00.622Z,89.99
2022-09-05T07:05:18.449Z,89.99
2022-09-05T07:07:24.782Z,90.05
2022-09-05T07:09:59.407Z,89.08
2022-09-05T07:12:30.473Z,87.94
2022-09-05T07:15:08.600Z,88.39
2022-09-05T07:18:09.674Z,88.21
2022-09-05T07:21:17.135Z,87.75
2022-09-05T07:24:10.272Z,87.83
2022-09-05T07:26:52.113Z,88.11
2022-09-05T07:29:27.634Z,88.20
2022-09-05T07:31:57.426Z,88.00
2022-09-05T07:34:28.988Z,87.62
2022-09-05T07:37:14.773Z,87.55
2022-09-05T07:39:46.465Z,86.69
2022-09-05T07:42:18.192Z,85.22
2022-09-05T07:44:50.224Z,85.50
2022-09-05T07:47:22.256Z,86.52
2022-09-05T07:50:20.997Z,86.12
2022-09-05T07:57:00.668Z,84.85
2022-09-05T07:57:08.677Z,84.56
2022-09-05T07:58:21.400Z,84.90
2022-09-05T08:00:53.032Z,85.18
2022-09-05T08:03:26.618Z,84.48
2022-09-05T08:05:55.449Z,83.49
2022-09-05T08:08:25.875Z,82.54
2022-09-05T08:11:24.878Z,82.92
2022-09-05T08:13:52.563Z,81.81
2022-09-05T08:16:23.302Z,81.26
2022-09-05T08:18:57.034Z,81.06
2022-09-05T08:21:28.055Z,80.47
2022-09-05T08:24:05.528Z,78.57
2022-09-05T08:26:47.088Z,79.42
2022-09-05T08:29:22.959Z,79.59
2022-09-05T08:31:52.770Z,78.79
2022-09-05T08:34:32.779Z,78.72
2022-09-05T08:37:13.916Z,79.06
2022-09-05T08:39:49.853Z,78.30
2022-09-05T08:42:52.741Z,77.81
2022-09-05T08:46:47.737Z,77.68
2022-09-05T08:48:35.812Z,76.95
2022-09-05T08:51:14.960Z,76.39
2022-09-05T08:53:54.545Z,77.27
2022-09-05T08:56:23.355Z,76.17
2022-09-05T08:59:27.635Z,75.80
2022-09-05T09:02:00.760Z,76.47
2022-09-05T09:05:02.566Z,74.97
2022-09-05T09:07:47.285Z,74.87
2022-09-05T09:10:28.443Z,75.28
2022-09-05T09:13:08.497Z,75.04
2022-09-05T09:15:38.722Z,73.90
2022-09-05T09:18:14.810Z,73.77
2022-09-05T09:20:51.898Z,74.76
2022-09-05T09:23:38.910Z,75.28
2022-09-05T09:26:15.752Z,74.09
2022-09-05T09:28:56.882Z,72.91
2022-09-05T09:31:48.094Z,71.09
2022-09-05T09:34:38.189Z,71.41
2022-09-05T09:37:51.823Z,69.40
2022-09-05T09:41:02.661Z,68.41
2022-09-05T09:43:53.078Z,67.33
2022-09-05T09:46:28.310Z,66.26
2022-09-05T09:49:22.905Z,66.24
2022-09-05T09:52:36.470Z,65.75
2022-09-05T09:55:42.478Z,65.75
2022-09-05T09:58:29.260Z,65.50
2022-09-05T10:01:35.000Z,66.21
2022-09-05T10:10:32.867Z,65.28
2022-09-05T10:10:45.889Z,65.40
2022-09-05T10:10:46.047Z,66.62
2022-09-05T10:13:28.780Z,66.11
2022-09-05T10:16:16.480Z,66.01
2022-09-05T10:18:54.466Z,65.94
2022-09-05T10:21:32.345Z,65.44
2022-09-05T10:24:35.282Z,64.52
2022-09-05T10:27:44.524Z,64.53
2022-09-05T10:30:25.303Z,64.24
2022-09-05T10:35:08.367Z,63.88
2022-09-05T10:36:23.494Z,62.47
2022-09-05T10:39:00.925Z,63.27
2022-09-05T10:41:50.946Z,64.25
2022-09-05T10:44:25.080Z,63.50
2022-09-05T10:46:59.885Z,62.90
2022-09-05T10:49:30.161Z,62.81
2022-09-05T10:52:13.152Z,62.05
2022-09-05T10:55:14.318Z,61.35
2022-09-05T10:57:55.909Z,62.42
2022-09-05T11:02:20.428Z,61.68
2022-09-05T11:03:45.915Z,61.70
2022-09-05T11:06:16.677Z,62.38
2022-09-05T11:08:58.722Z,61.80
2022-09-05T11:11:34.666Z,61.22
2022-09-05T11:14:07.241Z,60.97
2022-09-05T11:16:51.083Z,61.29
2022-09-05T11:19:22.170Z,60.00
2022-09-05T11:22:04.066Z,59.91
2022-09-05T11:24:50.175Z,59.71
2022-09-05T11:27:29.167Z,59.60
2022-09-05T11:30:00.824Z,59.70
2022-09-05T11:36:32.346Z,59.66
2022-09-05T11:40:00.458Z,59.51
2022-09-05T11:40:07.457Z,58.31
2022-09-05T11:42:17.740Z,57.75
2022-09-05T11:45:12.078Z,56.78
2022-09-05T11:48:10.512Z,57.18
2022-09-05T11:51:00.844Z,57.42
2022-09-05T11:53:42.193Z,57.30
2022-09-05T11:56:29.993Z,57.56
2022-09-05T11:59:33.660Z,57.66
2022-09-05T12:02:23.927Z,57.04
2022-09-05T12:05:49.079Z,56.75
2022-09-05T12:07:57.397Z,57.48
2022-09-05T12:10:43.380Z,57.40
2022-09-05T12:13:26.383Z,57.26
2022-09-05T12:16:07.741Z,57.32
2022-09-05T12:18:45.928Z,57.38
2022-09-05T12:21:25.765Z,57.45
2022-09-05T12:25:16.566Z,58.02
2022-09-05T12:27:43.795Z,57.40
2022-09-05T12:29:50.023Z,57.18
2022-09-05T12:33:47.906Z,55.37
2022-09-05T12:36:10.010Z,55.32
2022-09-05T12:40:55.969Z,53.77
2022-09-05T12:41:40.752Z,53.67
2022-09-05T12:44:41.358Z,54.29
2022-09-05T12:47:19.819Z,53.60
2022-09-05T12:50:02.786Z,52.36
2022-09-05T12:52:44.113Z,52.25
2022-09-05T12:55:25.920Z,52.99
2022-09-05T13:03:03.073Z,52.84
2022-09-05T13:03:13.669Z,50.93
2022-09-05T13:03:53.336Z,50.74
2022-09-05T13:06:27.322Z,51.71
2022-09-05T13:09:02.800Z,49.90
2022-09-05T13:14:50.340Z,50.44
2022-09-05T13:15:06.146Z,50.34
2022-09-05T13:17:14.386Z,47.38
2022-09-05T13:19:51.392Z,46.96
2022-09-05T13:22:24.559Z,47.61
2022-09-05T13:25:00.872Z,48.18
2022-09-05T13:27:31.869Z,47.35
2022-09-05T13:31:40.677Z,46.86
2022-09-05T13:37:56.504Z,46.17
2022-09-05T13:38:11.510Z,46.95
2022-09-05T13:38:51.804Z,44.82
2022-09-05T13:41:28.385Z,45.86
2022-09-05T13:44:00.554Z,45.43
2022-09-05T13:46:58.220Z,45.64
2022-09-05T13:49:31.635Z,45.38
2022-09-05T13:52:09.747Z,46.05
2022-09-05T13:54:42.189Z,46.37
2022-09-05T13:57:32.441Z,47.03
2022-09-05T14:00:27.722Z,46.54
2022-09-05T14:03:38.380Z,46.64
2022-09-05T14:06:47.474Z,46.56
2022-09-05T14:09:39.799Z,46.45
2022-09-05T14:12:12.620Z,46.93
2022-09-05T14:17:54.172Z,46.67
2022-09-05T14:20:44.050Z,46.28
2022-09-05T14:23:17.706Z,45.88
2022-09-05T14:25:49.982Z,46.11
2022-09-05T14:28:27.352Z,45.21
2022-09-05T14:37:40.804Z,45.46
2022-09-05T14:37:45.288Z,46.26
2022-09-05T14:37:50.191Z,45.63
2022-09-05T14:40:29.983Z,46.05
2022-09-05T14:43:27.022Z,46.64
2022-09-05T14:46:10.235Z,46.10
2022-09-05T14:48:56.345Z,46.83
2022-09-05T14:51:30.742Z,46.36
2022-09-05T14:54:02.547Z,46.34
2022-09-05T14:59:44.893Z,46.89
2022-09-05T15:02:48.939Z,46.92
2022-09-05T15:02:57.367Z,47.35
2022-09-05T15:05:16.449Z,47.09
2022-09-05T15:07:45.534Z,47.58
2022-09-05T15:12:21.290Z,47.33
2022-09-05T15:13:25.682Z,46.94
2022-09-05T15:16:02.789Z,46.70
2022-09-05T15:18:33.580Z,46.51
2022-09-05T15:21:30.754Z,46.74
2022-09-05T15:24:12.902Z,46.77
2022-09-05T15:26:53.043Z,45.83
2022-09-05T15:29:23.629Z,45.86
2022-09-05T15:31:54.579Z,46.14
2022-09-05T15:34:38.480Z,45.94
2022-09-05T15:37:22.837Z,46.71
2022-09-05T15:40:01.255Z,46.52
2022-09-05T15:42:32.550Z,46.95
2022-09-05T15:45:10.454Z,46.56
2022-09-05T15:47:41.773Z,46.44
2022-09-05T15:50:21.799Z,46.34
2022-09-05T15:52:55.701Z,46.47
2022-09-05T15:55:26.576Z,46.35
2022-09-05T15:57:57.727Z,46.73
2022-09-05T16:00:43.649Z,47.07
2022-09-05T16:05:02.322Z,47.11
2022-09-05T16:10:36.097Z,47.05
2022-09-05T16:10:38.653Z,47.24
2022-09-05T16:12:14.308Z,47.54
2022-09-05T16:15:01.760Z,47.92
2022-09-05T16:23:12.305Z,47.24
2022-09-05T16:23:23.752Z,47.34
2022-09-05T16:23:40.598Z,47.42
2022-09-05T16:26:12.122Z,47.71
2022-09-05T16:28:47.155Z,48.34
2022-09-05T16:31:21.281Z,48.41
2022-09-05T16:33:49.501Z,48.62
2022-09-05T16:36:19.027Z,49.01
2022-09-05T16:38:50.749Z,48.73
2022-09-05T16:41:24.561Z,48.43
2022-09-05T16:43:55.868Z,47.91
2022-09-05T16:46:28.187Z,48.04
2022-09-05T16:49:00.682Z,48.14
2022-09-05T16:51:36.480Z,48.36
2022-09-05T16:54:10.954Z,48.52
2022-09-05T16:56:41.902Z,48.34
2022-09-05T16:59:12.012Z,48.08
2022-09-05T17:02:09.213Z,48.11
2022-09-05T17:05:05.001Z,48.45
2022-09-05T17:07:55.521Z,48.04
2022-09-05T17:10:26.656Z,48.32
2022-09-05T17:12:54.882Z,49.07
2022-09-05T17:15:27.606Z,49.45
2022-09-05T17:18:22.266Z,49.67
2022-09-05T17:20:51.505Z,49.72
2022-09-05T17:26:36.979Z,50.08
2022-09-05T17:29:23.729Z,50.23
2022-09-05T17:30:21.943Z,50.63
2022-09-05T17:31:57.559Z,50.89
2022-09-05T17:34:48.124Z,51.15
2022-09-05T17:37:26.379Z,51.40
2022-09-05T17:40:00.571Z,52.17
2022-09-05T17:42:37.718Z,52.61
2022-09-05T17:45:16.425Z,53.49
2022-09-05T17:47:48.285Z,53.27
2022-09-05T17:50:23.016Z,53.56
2022-09-05T17:53:26.002Z,54.30
2022-09-05T17:56:14.297Z,53.85
2022-09-05T17:59:03.865Z,53.97
2022-09-05T18:01:32.404Z,54.31
2022-09-05T18:04:16.070Z,54.35
2022-09-05T18:06:59.018Z,53.90
2022-09-05T18:10:07.616Z,54.67
2022-09-05T18:13:13.713Z,55.41
2022-09-05T18:16:02.949Z,55.60
2022-09-05T18:19:32.888Z,55.65
2022-09-05T18:21:25.156Z,55.98
2022-09-05T18:24:00.667Z,56.04
2022-09-05T18:26:29.358Z,56.04
2022-09-05T18:29:03.872Z,56.23
2022-09-05T18:32:02.693Z,55.77
2022-09-05T18:34:45.228Z,55.69
2022-09-05T18:38:00.042Z,55.99
2022-09-05T18:40:48.615Z,56.14
2022-09-05T18:43:33.552Z,56.36
2022-09-05T18:46:08.320Z,56.59
2022-09-05T18:48:44.742Z,56.61
2022-09-05T18:51:35.450Z,56.86
2022-09-05T18:54:05.478Z,57.58
2022-09-05T18:57:12.053Z,57.60
2022-09-05T18:59:30.551Z,57.67
2022-09-05T19:02:04.487Z,57.53
2022-09-05T19:04:40.817Z,57.82
2022-09-05T19:07:11.836Z,58.23
2022-09-05T19:09:56.915Z,57.39
2022-09-05T19:12:33.908Z,57.50
2022-09-05T19:15:08.415Z,57.48
2022-09-05T19:17:38.319Z,57.77
2022-09-05T19:20:32.613Z,57.19
2022-09-05T19:23:09.829Z,57.34
2022-09-05T19:25:41.729Z,57.17
2022-09-05T19:33:50.489Z,57.19
2022-09-05T19:36:58.521Z,56.89
2022-09-05T19:37:10.873Z,57.17
2022-09-05T19:37:22.506Z,56.89
2022-09-05T19:42:04.574Z,57.56
2022-09-05T19:47:35.917Z,57.11
2022-09-05T19:47:36.392Z,57.45
2022-09-05T19:48:17.928Z,56.79
2022-09-05T19:50:47.160Z,56.72
2022-09-05T19:53:16.260Z,56.20
2022-09-05T19:55:44.690Z,55.88
2022-09-05T19:58:19.843Z,56.27
2022-09-05T20:01:02.361Z,56.92
2022-09-05T20:03:38.261Z,57.33
2022-09-05T20:06:29.383Z,59.38
2022-09-05T20:09:09.587Z,59.80
2022-09-05T20:11:45.702Z,59.80
2022-09-05T20:14:19.497Z,59.33
2022-09-05T20:16:50.105Z,59.49
2022-09-05T20:19:30.598Z,58.97
2022-09-05T20:22:14.339Z,58.49
2022-09-05T20:24:49.091Z,59.26
2022-09-05T20:27:17.145Z,58.99
2022-09-05T20:29:54.789Z,58.18
2022-09-05T20:32:39.567Z,58.03
2022-09-05T20:39:26.608Z,58.43
2022-09-05T20:43:23.017Z,60.04
2022-09-05T20:43:24.765Z,60.65
2022-09-05T20:43:52.629Z,60.67
2022-09-05T20:49:00.848Z,60.89
2022-09-05T20:54:05.982Z,60.51
2022-09-05T20:54:19.245Z,60.29
2022-09-05T20:55:39.434Z,60.46
2022-09-05T20:58:09.348Z,61.05
2022-09-05T21:00:38.949Z,61.65
2022-09-05T21:03:09.102Z,61.79
2022-09-05T21:05:39.920Z,61.66
2022-09-05T21:08:24.938Z,62.51
2022-09-05T21:10:55.706Z,63.42
2022-09-05T21:13:25.871Z,62.61
2022-09-05T21:15:54.751Z,62.35
2022-09-05T21:18:29.999Z,62.86
2022-09-05T21:21:28.119Z,63.49
2022-09-05T21:24:16.858Z,64.11
2022-09-05T21:26:47.707Z,64.53
2022-09-05T21:29:17.550Z,64.71
2022-09-05T21:31:49.242Z,64.92
2022-09-05T21:34:25.268Z,64.96
2022-09-05T21:37:06.462Z,65.15
2022-09-05T21:39:38.197Z,65.43
2022-09-05T21:43:38.872Z,65.15
2022-09-05T21:47:37.389Z,65.69
2022-09-05T21:47:52.346Z,66.21
2022-09-05T21:50:31.343Z,65.92
2022-09-05T21:54:28.025Z,67.18
2022-09-05T21:59:16.153Z,67.72
2022-09-05T21:59:21.007Z,67.62
2022-09-05T22:01:48.884Z,66.81
2022-09-05T22:04:17.446Z,66.52
2022-09-05T22:06:48.360Z,66.44
2022-09-05T22:09:18.404Z,66.48
2022-09-05T22:11:51.116Z,66.33
2022-09-05T22:14:19.218Z,65.70
2022-09-05T22:16:47.604Z,65.83
2022-09-05T22:19:17.774Z,66.27
2022-09-05T22:21:45.522Z,66.03
2022-09-05T22:24:13.619Z,66.69
2022-09-05T22:27:01.521Z,66.58
2022-09-05T22:29:34.507Z,67.20
2022-09-05T22:32:02.222Z,67.56
2022-09-05T22:34:29.898Z,67.02
2022-09-05T22:36:57.812Z,66.42
2022-09-05T22:39:35.501Z,66.26
2022-09-05T22:42:10.540Z,66.66
2022-09-05T22:44:39.499Z,67.21
2022-09-05T22:47:07.302Z,67.35
2022-09-05T22:49:36.315Z,67.31
2022-09-05T22:52:05.368Z,67.20
2022-09-05T22:54:33.061Z,66.65
2022-09-05T22:57:00.724Z,66.75
2022-09-05T22:59:29.913Z,67.60
2022-09-05T23:01:57.620Z,67.74
2022-09-05T23:04:25.800Z,68.01
2022-09-05T23:06:53.526Z,67.49
2022-09-05T23:09:21.283Z,67.24
2022-09-05T23:11:48.983Z,66.27
2022-09-05T23:14:16.631Z,66.42
2022-09-05T23:16:45.729Z,68.14
2022-09-05T23:19:13.323Z,69.00
2022-09-05T23:21:40.959Z,68.55
2022-09-05T23:24:08.604Z,68.12
2022-09-05T23:26:36.200Z,68.12
2022-09-05T23:29:03.797Z,65.98
2022-09-05T23:31:31.502Z,65.58
2022-09-05T23:34:00.505Z,65.35
2022-09-05T23:36:28.227Z,65.72
2022-09-05T23:38:56.124Z,65.34
2022-09-05T23:41:23.763Z,64.94
2022-09-05T23:43:51.490Z,65.21
2022-09-05T23:46:19.139Z,65.76
2022-09-05T23:48:46.870Z,65.64
2022-09-05T23:51:15.861Z,66.02
2022-09-05T23:53:43.896Z,65.67
2022-09-05T23:56:12.274Z,65.21
2022-09-05T23:58:40.085Z,64.57
